createdAt,value
2023-05-11T00:02:02.141Z,95546.94
2023-05-11T00:04:30.145Z,95557.84
2023-05-11T00:06:59.500Z,95546.94
2023-05-11T00:09:27.505Z,95529.34
2023-05-11T00:11:55.674Z,95547.38
2023-05-11T00:14:23.757Z,95561.50
2023-05-11T00:16:51.718Z,95556.44
2023-05-11T00:19:19.955Z,95533.00
2023-05-11T00:21:48.061Z,95551.22
2023-05-11T00:24:17.411Z,95553.44
2023-05-11T00:26:45.500Z,95511.66
2023-05-11T00:29:13.491Z,95568.16
2023-05-11T00:31:41.475Z,95568.47
2023-05-11T00:34:09.454Z,95547.88
2023-05-11T00:36:41.312Z,95515.59
2023-05-11T00:39:10.028Z,95561.81
2023-05-11T00:41:39.625Z,95563.25
2023-05-11T00:44:07.620Z,95556.59
2023-05-11T00:46:35.668Z,95559.63
2023-05-11T00:49:04.115Z,95485.81
2023-05-11T00:51:33.205Z,95541.22
2023-05-11T00:54:02.596Z,95552.78
2023-05-11T00:56:30.576Z,95565.16
2023-05-11T00:59:00.204Z,95520.34
2023-05-11T01:01:28.678Z,95539.50
2023-05-11T01:03:56.644Z,95566.91
2023-05-11T01:06:31.951Z,95573.03
2023-05-11T01:09:07.046Z,95547.09
2023-05-11T01:11:42.579Z,95551.84
2023-05-11T01:14:17.212Z,95561.34
2023-05-11T01:16:49.899Z,95534.09
2023-05-11T01:19:32.285Z,95551.34
2023-05-11T01:22:01.326Z,95549.59
2023-05-11T01:24:39.472Z,95536.34
2023-05-11T01:27:37.095Z,95558.00
2023-05-11T01:30:37.211Z,95558.94
2023-05-11T01:33:11.121Z,95546.91
2023-05-11T01:35:44.358Z,95570.50
2023-05-11T01:38:15.310Z,95543.44
2023-05-11T01:40:44.840Z,95560.06
2023-05-11T01:43:18.902Z,95575.09
2023-05-11T01:45:51.492Z,95551.03
2023-05-11T01:48:24.649Z,95548.00
2023-05-11T01:50:54.090Z,95433.66
2023-05-11T01:53:24.065Z,95563.38
2023-05-11T01:55:53.818Z,95432.81
2023-05-11T01:58:24.895Z,95566.69
2023-05-11T02:00:55.800Z,95577.59
2023-05-11T02:03:24.656Z,95554.81
2023-05-11T02:05:54.549Z,95579.19
2023-05-11T02:08:23.592Z,95571.13
2023-05-11T02:10:52.043Z,95577.31
2023-05-11T02:13:21.001Z,95448.97
2023-05-11T02:15:51.827Z,95571.75
2023-05-11T02:18:22.310Z,95555.28
2023-05-11T02:20:51.852Z,95533.09
2023-05-11T02:23:22.069Z,95552.88
2023-05-11T02:25:51.044Z,95562.53
2023-05-11T02:28:19.516Z,95558.28
2023-05-11T02:30:49.860Z,95566.19
2023-05-11T02:33:26.886Z,95561.25
2023-05-11T02:35:57.415Z,95564.28
2023-05-11T02:38:31.740Z,95559.06
2023-05-11T02:41:03.573Z,95569.50
2023-05-11T02:43:36.662Z,95560.31
2023-05-11T02:46:08.099Z,95512.94
2023-05-11T02:48:40.178Z,95560.16
2023-05-11T02:51:11.367Z,95565.38
2023-05-11T02:53:42.619Z,95564.56
2023-05-11T02:56:10.854Z,95557.09
2023-05-11T02:58:39.288Z,95556.97
2023-05-11T03:01:08.770Z,95421.84
2023-05-11T03:03:38.384Z,95547.63
2023-05-11T03:06:06.598Z,95557.44
2023-05-11T03:08:34.981Z,95548.84
2023-05-11T03:11:04.166Z,95523.97
2023-05-11T03:13:33.727Z,95503.53
2023-05-11T03:16:03.409Z,95555.19
2023-05-11T03:18:32.414Z,95560.88
2023-05-11T03:21:03.451Z,95521.06
2023-05-11T03:23:31.773Z,95525.09
2023-05-11T03:26:00.882Z,95507.16
2023-05-11T03:28:31.085Z,95568.94
2023-05-11T03:30:59.158Z,95577.31
2023-05-11T03:33:27.556Z,95577.94
2023-05-11T03:35:56.396Z,95576.03
2023-05-11T03:38:29.337Z,95571.00
2023-05-11T03:40:59.094Z,95517.69
2023-05-11T03:43:28.352Z,95560.03
2023-05-11T03:45:58.809Z,95522.31
2023-05-11T03:48:27.204Z,95577.94
2023-05-11T03:50:56.736Z,95574.91
2023-05-11T03:53:26.869Z,95566.84
2023-05-11T03:55:55.016Z,95577.13
2023-05-11T03:58:23.798Z,95584.09
2023-05-11T04:00:52.139Z,95534.50
2023-05-11T04:03:20.464Z,95579.00
2023-05-11T04:05:48.594Z,95543.31
2023-05-11T04:08:16.778Z,95590.88
2023-05-11T04:10:46.160Z,95589.94
2023-05-11T04:13:14.110Z,95583.63
2023-05-11T04:15:42.218Z,95593.09
2023-05-11T04:18:11.299Z,95569.28
2023-05-11T04:20:39.293Z,95590.09
2023-05-11T04:23:09.051Z,95590.09
2023-05-11T04:25:38.327Z,95594.66
2023-05-11T04:28:07.668Z,95602.44
2023-05-11T04:30:35.877Z,95601.66
2023-05-11T04:33:05.319Z,95607.03
2023-05-11T04:35:33.393Z,95607.03
2023-05-11T04:38:01.438Z,95598.94
2023-05-11T04:40:32.814Z,95605.28
2023-05-11T04:43:08.697Z,95574.19
2023-05-11T04:45:44.356Z,95605.06
2023-05-11T04:48:12.538Z,95613.19
2023-05-11T04:50:40.780Z,95614.00
2023-05-11T04:53:08.789Z,95600.84
2023-05-11T04:55:36.789Z,95601.66
2023-05-11T04:58:04.762Z,95529.47
2023-05-11T05:00:34.097Z,95557.56
2023-05-11T05:03:02.235Z,95608.78
2023-05-11T05:05:30.238Z,95603.84
2023-05-11T05:07:58.252Z,95637.53
2023-05-11T05:10:26.376Z,95603.84
2023-05-11T05:12:54.473Z,95592.88
2023-05-11T05:15:22.502Z,95579.19
2023-05-11T05:17:51.967Z,95614.47
2023-05-11T05:20:20.424Z,95631.22
2023-05-11T05:22:48.614Z,95588.31
2023-05-11T05:25:17.030Z,95628.88
2023-05-11T05:27:45.121Z,95625.84
2023-05-11T05:30:16.774Z,95614.94
2023-05-11T05:32:44.886Z,95635.53
2023-05-11T05:35:14.411Z,95622.28
2023-05-11T05:37:42.877Z,95631.94
2023-05-11T05:40:11.369Z,95634.31
2023-05-11T05:42:39.366Z,95640.78
2023-05-11T05:45:08.485Z,95616.91
2023-05-11T05:47:36.555Z,95612.75
2023-05-11T05:50:04.759Z,95631.78
2023-05-11T05:52:34.212Z,95640.16
2023-05-11T05:55:02.243Z,95635.59
2023-05-11T05:57:31.428Z,95644.31
2023-05-11T05:59:59.433Z,95641.63
2023-05-11T06:02:27.605Z,95633.53
2023-05-11T06:04:55.702Z,95649.19
2023-05-11T06:07:23.603Z,95646.22
2023-05-11T06:09:52.938Z,95648.13
2023-05-11T06:12:20.938Z,95638.66
2023-05-11T06:14:49.067Z,95669.41
2023-05-11T06:17:17.068Z,95651.53
2023-05-11T06:19:45.032Z,95659.13
2023-05-11T06:22:13.230Z,95585.72
2023-05-11T06:24:41.325Z,95654.22
2023-05-11T06:27:10.772Z,95657.72
2023-05-11T06:29:39.630Z,95656.66
2023-05-11T06:32:07.741Z,95639.50
2023-05-11T06:34:35.843Z,95660.09
2023-05-11T06:37:04.055Z,95673.94
2023-05-11T06:39:32.023Z,95672.19
2023-05-11T06:42:04.248Z,95662.50
2023-05-11T06:44:35.370Z,95653.16
2023-05-11T06:47:03.518Z,95676.50
2023-05-11T06:49:31.601Z,95680.16
2023-05-11T06:51:59.851Z,95633.72
2023-05-11T06:54:27.850Z,95669.09
2023-05-11T06:56:55.845Z,95653.41
2023-05-11T06:59:23.877Z,95628.50
2023-05-11T07:01:53.324Z,95665.81
2023-05-11T07:04:21.378Z,95689.28
2023-05-11T07:06:50.375Z,95670.91
2023-05-11T07:09:18.661Z,95675.63
2023-05-11T07:11:46.770Z,95676.94
2023-05-11T07:14:14.723Z,95659.53
2023-05-11T07:16:42.922Z,95673.97
2023-05-11T07:19:12.378Z,95655.59
2023-05-11T07:21:40.622Z,95669.06
2023-05-11T07:24:08.780Z,95612.03
2023-05-11T07:26:36.857Z,95669.56
2023-05-11T07:29:04.875Z,95677.00
2023-05-11T07:31:33.703Z,95672.56
2023-05-11T07:34:01.815Z,95665.25
2023-05-11T07:36:31.728Z,95653.38
2023-05-11T07:39:01.407Z,95660.03
2023-05-11T07:41:30.099Z,95660.16
2023-05-11T07:43:58.139Z,95678.09
2023-05-11T07:46:26.093Z,95666.03
2023-05-11T07:49:03.380Z,95649.81
2023-05-11T07:51:37.222Z,95638.19
2023-05-11T07:54:05.806Z,95665.88
2023-05-11T07:56:33.901Z,95654.94
2023-05-11T07:59:01.956Z,95668.25
2023-05-11T08:01:30.010Z,95621.53
2023-05-11T08:03:57.929Z,95663.13
2023-05-11T08:06:26.478Z,95660.47
2023-05-11T08:08:56.332Z,95666.69
2023-05-11T08:11:24.446Z,95647.75
2023-05-11T08:13:52.920Z,95656.53
2023-05-11T08:16:21.290Z,95667.28
2023-05-11T08:18:50.088Z,95652.56
2023-05-11T08:21:18.798Z,95665.72
2023-05-11T08:23:46.779Z,95660.38
2023-05-11T08:26:16.783Z,95652.75
2023-05-11T08:28:44.779Z,95681.38
2023-05-11T08:31:14.514Z,95665.16
2023-05-11T08:33:42.659Z,95673.84
2023-05-11T08:36:13.268Z,95655.72
2023-05-11T08:38:41.716Z,95639.41
2023-05-11T08:41:12.647Z,95672.16
2023-05-11T08:43:42.429Z,95690.59
2023-05-11T08:46:12.781Z,95654.50
2023-05-11T08:48:42.598Z,95654.84
2023-05-11T08:51:10.920Z,95638.91
2023-05-11T08:53:38.926Z,95641.72
2023-05-11T08:56:09.638Z,95659.09
2023-05-11T08:58:38.573Z,95672.91
2023-05-11T09:01:09.129Z,95675.31
2023-05-11T09:03:38.200Z,95678.22
2023-05-11T09:06:08.301Z,95645.81
2023-05-11T09:08:40.632Z,95661.03
2023-05-11T09:11:08.857Z,95658.00
2023-05-11T09:13:36.986Z,95663.41
2023-05-11T09:16:07.307Z,95643.91
2023-05-11T09:18:49.185Z,95663.56
2023-05-11T09:21:17.945Z,95662.84
2023-05-11T09:23:46.437Z,95650.19
2023-05-11T09:26:17.944Z,95620.25
2023-05-11T09:29:02.452Z,95592.06
2023-05-11T09:31:42.711Z,95670.81
2023-05-11T09:34:17.363Z,95667.44
2023-05-11T09:36:46.972Z,95658.19
2023-05-11T09:39:16.594Z,95654.75
2023-05-11T09:41:45.562Z,95660.13
2023-05-11T09:44:15.220Z,95670.81
2023-05-11T09:46:45.945Z,95678.50
2023-05-11T09:49:17.932Z,95670.31
2023-05-11T09:51:46.194Z,95667.50
2023-05-11T09:54:18.921Z,95646.66
2023-05-11T09:56:48.880Z,95656.25
2023-05-11T09:59:18.404Z,95632.34
2023-05-11T10:01:46.356Z,95634.16
2023-05-11T10:06:50.366Z,95645.44
2023-05-11T10:09:24.361Z,95640.47
2023-05-11T10:11:54.215Z,95614.19
2023-05-11T10:14:23.795Z,95596.31
2023-05-11T10:16:53.374Z,95610.19
2023-05-11T10:19:26.051Z,95617.16
2023-05-11T10:21:54.413Z,95605.84
2023-05-11T10:24:23.020Z,95613.91
2023-05-11T10:26:51.958Z,95603.53
2023-05-11T10:29:21.586Z,95592.88
2023-05-11T10:31:51.346Z,95625.50
2023-05-11T10:34:23.284Z,95594.44
2023-05-11T10:36:54.341Z,95609.91
2023-05-11T10:39:22.989Z,95598.91
2023-05-11T10:42:03.147Z,95604.34
2023-05-11T10:45:22.835Z,95582.47
2023-05-11T10:48:27.989Z,95573.47
2023-05-11T10:51:16.478Z,95589.63
2023-05-11T10:54:15.705Z,95631.94
2023-05-11T10:57:00.339Z,95580.88
2023-05-11T10:59:53.192Z,95609.13
2023-05-11T11:02:21.430Z,95604.50
2023-05-11T11:04:50.737Z,95596.25
2023-05-11T11:07:19.944Z,95588.34
2023-05-11T11:09:57.495Z,95596.91
2023-05-11T11:12:27.083Z,95586.66
2023-05-11T11:14:57.781Z,95569.81
2023-05-11T11:17:29.116Z,95586.56
2023-05-11T11:19:57.550Z,95586.88
2023-05-11T11:22:47.281Z,95591.28
2023-05-11T11:25:38.040Z,95579.13
2023-05-11T11:28:06.416Z,95578.59
2023-05-11T11:30:34.746Z,95567.88
2023-05-11T11:33:34.803Z,95571.03
2023-05-11T11:36:03.162Z,95573.75
2023-05-11T11:38:32.595Z,95544.97
2023-05-11T11:41:02.705Z,95579.44
2023-05-11T11:43:45.890Z,95585.28
2023-05-11T11:46:28.077Z,95583.06
2023-05-11T11:49:11.298Z,95591.56
2023-05-11T11:51:40.593Z,95545.44
2023-05-11T11:54:09.138Z,95576.59
2023-05-11T11:56:43.868Z,95567.88
2023-05-11T11:59:14.144Z,95580.59
2023-05-11T12:01:44.026Z,95572.66
2023-05-11T12:05:01.019Z,95571.94
2023-05-11T12:07:35.231Z,95548.06
2023-05-11T12:10:04.690Z,95559.63
2023-05-11T12:12:34.851Z,95558.16
2023-05-11T12:15:04.088Z,95557.06
2023-05-11T12:17:34.570Z,95563.97
2023-05-11T12:20:17.007Z,95568.91
2023-05-11T12:22:48.097Z,95564.09
2023-05-11T12:25:18.099Z,95557.56
2023-05-11T12:27:58.140Z,95545.44
2023-05-11T12:30:28.435Z,95550.41
2023-05-11T12:32:59.482Z,95509.94
2023-05-11T12:35:29.007Z,95537.84
2023-05-11T12:37:59.009Z,95527.22
2023-05-11T12:40:27.611Z,95506.59
2023-05-11T12:42:58.814Z,95474.66
2023-05-11T12:45:29.292Z,95530.53
2023-05-11T12:47:58.884Z,95527.88
2023-05-11T12:50:26.942Z,95544.69
2023-05-11T12:52:55.117Z,95511.34
2023-05-11T12:55:29.453Z,95524.28
2023-05-11T12:58:11.992Z,95514.78
2023-05-11T13:00:52.121Z,95490.66
2023-05-11T13:03:23.071Z,95518.16
2023-05-11T13:05:51.641Z,95507.03
2023-05-11T13:08:21.050Z,95510.91
2023-05-11T13:10:49.173Z,95507.59
2023-05-11T13:13:33.367Z,95497.69
2023-05-11T13:16:01.430Z,95513.66
2023-05-11T13:18:29.627Z,95494.69
2023-05-11T13:21:08.755Z,95473.81
2023-05-11T13:23:37.200Z,95512.53
2023-05-11T13:26:07.820Z,95501.59
2023-05-11T13:28:37.946Z,95425.25
2023-05-11T13:31:06.070Z,95498.03
2023-05-11T13:33:34.746Z,95499.84
2023-05-11T13:36:03.591Z,95488.31
2023-05-11T13:38:32.489Z,95500.06
2023-05-11T13:41:00.536Z,95502.13
2023-05-11T13:43:28.617Z,95485.19
2023-05-11T13:45:58.050Z,95474.81
2023-05-11T13:48:26.161Z,95505.56
2023-05-11T13:50:54.165Z,95505.69
2023-05-11T13:53:22.359Z,95507.72
2023-05-11T13:55:50.505Z,95494.00
2023-05-11T13:58:19.250Z,95497.88
2023-05-11T14:00:56.599Z,95480.03
2023-05-11T14:03:36.392Z,95506.63
2023-05-11T14:06:07.640Z,95496.72
2023-05-11T14:08:35.634Z,95494.94
2023-05-11T14:11:03.730Z,95487.91
2023-05-11T14:13:31.814Z,95472.34
2023-05-11T14:16:00.526Z,95491.06
2023-05-11T14:18:28.989Z,95475.97
2023-05-11T14:21:00.757Z,95499.41
2023-05-11T14:23:29.340Z,95474.59
2023-05-11T14:25:57.310Z,95470.66
2023-05-11T14:28:25.288Z,95480.94
2023-05-11T14:30:53.355Z,95494.00
2023-05-11T14:33:21.394Z,95463.56
2023-05-11T14:35:50.815Z,95480.25
2023-05-11T14:38:20.628Z,95509.72
2023-05-11T14:40:51.049Z,95476.78
2023-05-11T14:43:20.372Z,95445.88
2023-05-11T14:45:48.812Z,95464.84
2023-05-11T14:48:17.176Z,95487.63
2023-05-11T14:50:45.477Z,95514.47
2023-05-11T14:53:13.938Z,95513.44
2023-05-11T14:55:43.284Z,95505.63
2023-05-11T14:58:11.279Z,95482.09
2023-05-11T15:00:40.471Z,95502.03
2023-05-11T15:03:10.675Z,95370.91
2023-05-11T15:05:39.273Z,95512.44
2023-05-11T15:08:18.331Z,95495.53
2023-05-11T15:10:55.874Z,95481.06
2023-05-11T15:13:24.477Z,95500.00
2023-05-11T15:15:53.006Z,95486.63
2023-05-11T15:18:21.082Z,95509.84
2023-05-11T15:20:50.153Z,95495.97
2023-05-11T15:23:18.365Z,95485.72
2023-05-11T15:25:46.864Z,95441.78
2023-05-11T15:28:16.812Z,95473.75
2023-05-11T15:30:44.736Z,95502.63
2023-05-11T15:33:12.858Z,95438.38
2023-05-11T15:35:40.994Z,95483.34
2023-05-11T15:38:09.335Z,95495.63
2023-05-11T15:40:37.328Z,95430.25
2023-05-11T15:43:05.626Z,95505.34
2023-05-11T15:45:36.744Z,95466.66
2023-05-11T15:48:05.518Z,95496.78
2023-05-11T15:50:33.493Z,95487.50
2023-05-11T15:53:02.777Z,95491.81
2023-05-11T15:55:30.741Z,95497.34
2023-05-11T15:57:58.714Z,95429.81
2023-05-11T16:00:26.850Z,95502.28
2023-05-11T16:02:56.578Z,95510.53
2023-05-11T16:05:24.638Z,95490.00
2023-05-11T16:07:52.745Z,95513.56
2023-05-11T16:10:20.951Z,95530.03
2023-05-11T16:12:48.993Z,95511.84
2023-05-11T16:15:17.102Z,95491.72
2023-05-11T16:17:46.364Z,95500.72
2023-05-11T16:20:15.843Z,95483.47
2023-05-11T16:22:44.324Z,95499.94
2023-05-11T16:25:12.338Z,95507.38
2023-05-11T16:27:40.364Z,95504.22
2023-05-11T16:30:23.335Z,95505.13
2023-05-11T16:32:54.017Z,95496.56
2023-05-11T16:35:23.492Z,95492.16
2023-05-11T16:37:51.493Z,95500.38
2023-05-11T16:40:22.199Z,95505.13
2023-05-11T16:42:50.443Z,95473.53
2023-05-11T16:45:18.482Z,95503.28
2023-05-11T16:47:46.728Z,95525.38
2023-05-11T16:50:16.300Z,95510.41
2023-05-11T16:52:46.035Z,95516.94
2023-05-11T16:55:16.245Z,95525.38
2023-05-11T16:57:45.038Z,95520.22
2023-05-11T17:00:14.473Z,95513.66
2023-05-11T17:02:43.889Z,95491.47
2023-05-11T17:05:12.616Z,95528.78
2023-05-11T17:07:42.863Z,95498.44
2023-05-11T17:10:13.496Z,95521.31
2023-05-11T17:12:42.576Z,95502.03
2023-05-11T17:15:10.957Z,95535.06
2023-05-11T17:17:39.398Z,95508.16
2023-05-11T17:20:10.387Z,95518.06
2023-05-11T17:22:39.907Z,95532.72
2023-05-11T17:25:11.583Z,95513.34
2023-05-11T17:27:50.098Z,95514.91
2023-05-11T17:30:18.950Z,95523.81
2023-05-11T17:32:47.408Z,95501.50
2023-05-11T17:35:17.072Z,95519.06
2023-05-11T17:37:45.664Z,95511.84
2023-05-11T17:40:16.398Z,95528.31
2023-05-11T17:42:45.923Z,95469.66
2023-05-11T17:45:15.540Z,95535.28
2023-05-11T17:47:43.748Z,95522.91
2023-05-11T17:50:12.587Z,95529.44
2023-05-11T17:52:40.822Z,95521.78
2023-05-11T17:55:10.936Z,95517.94
2023-05-11T17:57:56.688Z,95520.53
2023-05-11T18:00:28.655Z,95501.25
2023-05-11T18:02:58.908Z,95515.91
2023-05-11T18:05:44.666Z,95519.28
2023-05-11T18:08:18.364Z,95517.38
2023-05-11T18:10:48.035Z,95520.88
2023-05-11T18:13:25.491Z,95520.97
2023-05-11T18:15:54.545Z,95518.28
2023-05-11T18:21:15.552Z,95521.97
2023-05-11T18:23:43.829Z,95523.56
2023-05-11T18:26:16.324Z,95524.69
2023-05-11T18:28:49.026Z,95526.94
2023-05-11T18:31:19.315Z,95526.94
2023-05-11T18:33:50.546Z,95530.00
2023-05-11T18:36:21.951Z,95536.50
2023-05-11T18:38:51.098Z,95520.75
2023-05-11T18:41:19.387Z,95536.66
2023-05-11T18:43:50.928Z,95528.53
2023-05-11T18:46:20.984Z,95536.66
2023-05-11T18:48:55.012Z,95506.44
2023-05-11T18:51:26.386Z,95545.88
2023-05-11T18:54:02.483Z,95525.22
2023-05-11T18:56:30.754Z,95551.03
2023-05-11T18:59:03.509Z,95554.19
2023-05-11T19:01:46.634Z,95554.53
2023-05-11T19:04:20.931Z,95540.66
2023-05-11T19:06:50.130Z,95541.00
2023-05-11T19:09:19.004Z,95550.81
2023-05-11T19:11:49.134Z,95550.34
2023-05-11T19:14:19.028Z,95541.84
2023-05-11T19:16:47.306Z,95554.41
2023-05-11T19:19:16.546Z,95530.78
2023-05-11T19:21:51.515Z,95551.66
2023-05-11T19:24:26.254Z,95483.28
2023-05-11T19:27:06.722Z,95532.50
2023-05-11T19:29:38.402Z,95548.25
2023-05-11T19:34:53.400Z,95555.81
2023-05-11T19:37:21.970Z,95483.53
2023-05-11T19:39:50.135Z,95527.88
2023-05-11T19:42:23.550Z,95540.06
2023-05-11T19:45:01.474Z,95549.81
2023-05-11T19:47:29.730Z,95534.00
2023-05-11T19:49:57.829Z,95550.00
2023-05-11T19:52:26.162Z,95367.63
2023-05-11T19:54:54.143Z,95554.97
2023-05-11T19:57:22.451Z,95557.22
2023-05-11T19:59:50.591Z,95551.00
2023-05-11T20:02:20.130Z,95558.97
2023-05-11T20:04:48.304Z,95539.53
2023-05-11T20:07:16.347Z,95566.59
2023-05-11T20:09:44.394Z,95511.88
2023-05-11T20:12:12.364Z,95552.84
2023-05-11T20:14:41.007Z,95559.94
2023-05-11T20:17:09.508Z,95533.75
2023-05-11T20:19:38.914Z,95553.03
2023-05-11T20:22:07.235Z,95576.03
2023-05-11T20:24:35.273Z,95565.78
2023-05-11T20:27:09.152Z,95553.25
2023-05-11T20:29:38.977Z,95553.09
2023-05-11T20:32:08.039Z,95571.94
2023-05-11T20:34:36.148Z,95547.09
2023-05-11T20:37:05.848Z,95568.47
2023-05-11T20:39:34.227Z,95570.38
2023-05-11T20:42:04.464Z,95560.09
2023-05-11T20:44:32.506Z,95573.72
2023-05-11T20:47:00.455Z,95564.06
2023-05-11T20:49:38.312Z,95568.53
2023-05-11T20:52:11.231Z,95573.81
2023-05-11T20:54:39.409Z,95569.25
2023-05-11T20:57:08.299Z,95519.47
2023-05-11T21:02:07.707Z,95575.81
2023-05-11T21:04:36.199Z,95581.50
2023-05-11T21:07:04.184Z,95570.88
2023-05-11T21:09:33.538Z,95589.19
2023-05-11T21:12:01.573Z,95602.56
2023-05-11T21:14:29.624Z,95592.88
2023-05-11T21:16:57.565Z,95586.59
2023-05-11T21:19:26.157Z,95588.16
2023-05-11T21:21:54.200Z,95598.84
2023-05-11T21:24:22.349Z,95591.38
2023-05-11T21:26:52.079Z,95576.22
2023-05-11T21:29:20.037Z,95587.16
2023-05-11T21:31:48.020Z,95584.00
2023-05-11T21:34:16.955Z,95596.88
2023-05-11T21:36:45.795Z,95594.50
2023-05-11T21:39:14.202Z,95560.84
2023-05-11T21:41:42.499Z,95574.44
2023-05-11T21:44:11.835Z,95604.38
2023-05-11T21:46:39.877Z,95600.44
2023-05-11T21:49:07.851Z,95605.69
2023-05-11T21:51:35.891Z,95596.34
2023-05-11T21:54:04.022Z,95598.25
2023-05-11T21:56:32.048Z,95613.97
2023-05-11T21:59:00.064Z,95610.81
2023-05-11T22:01:29.624Z,95617.97
2023-05-11T22:04:01.191Z,95617.34
2023-05-11T22:06:29.280Z,95603.84
2023-05-11T22:08:57.192Z,95602.41
2023-05-11T22:11:25.183Z,95610.03
2023-05-11T22:13:53.393Z,95604.94
2023-05-11T22:16:21.395Z,95606.09
2023-05-11T22:18:50.989Z,95601.78
2023-05-11T22:21:19.076Z,95618.59
2023-05-11T22:23:47.048Z,95584.88
2023-05-11T22:26:16.580Z,95594.84
2023-05-11T22:28:45.404Z,95608.50
2023-05-11T22:31:13.328Z,95547.38
2023-05-11T22:33:41.365Z,95603.44
2023-05-11T22:36:12.487Z,95603.75
2023-05-11T22:38:41.174Z,95558.44
2023-05-11T22:41:09.318Z,95601.38
2023-05-11T22:43:37.284Z,95616.09
2023-05-11T22:46:05.904Z,95588.56
2023-05-11T22:48:34.076Z,95608.50
2023-05-11T22:51:06.325Z,95612.50
2023-05-11T22:53:35.770Z,95599.31
2023-05-11T22:56:05.106Z,95595.22
2023-05-11T22:58:33.136Z,95596.16
2023-05-11T23:01:01.427Z,95607.75
2023-05-11T23:03:29.431Z,95598.38
2023-05-11T23:05:57.702Z,95612.50
2023-05-11T23:08:26.675Z,95611.22
2023-05-11T23:10:56.471Z,95609.47
2023-05-11T23:13:24.629Z,95601.72
2023-05-11T23:15:52.831Z,95599.66
2023-05-11T23:18:21.146Z,95587.16
2023-05-11T23:20:49.892Z,95602.34
2023-05-11T23:23:17.913Z,95574.66
2023-05-11T23:25:47.428Z,95569.56
2023-05-11T23:28:16.852Z,95593.50
2023-05-11T23:30:46.100Z,95586.50
2023-05-11T23:33:15.234Z,95591.75
2023-05-11T23:35:43.232Z,95590.31
2023-05-11T23:38:11.256Z,95589.38
2023-05-11T23:40:39.224Z,95587.63
2023-05-11T23:43:07.144Z,95588.13
2023-05-11T23:45:37.281Z,95578.13
2023-05-11T23:48:05.789Z,95587.34
2023-05-11T23:50:33.868Z,95589.84
2023-05-11T23:53:03.573Z,95591.94
2023-05-11T23:55:31.705Z,95587.63
2023-05-11T23:57:59.861Z,95586.38
